sensor_id;sensor_type;location;lat;lon;timestamp;pressure;altitude;pressure_sealevel;temperature;humidity
10606;BME280;5350;42.698;23.148;2023-02-12T00:00:16;94585.25;;;0.55;44.45
10606;BME280;5350;42.698;23.148;2023-02-12T00:02:43;94585.50;;;0.47;45.12
10606;BME280;5350;42.698;23.148;2023-02-12T00:05:10;94581.34;;;0.39;44.96
10606;BME280;5350;42.698;23.148;2023-02-12T00:07:37;94583.13;;;0.45;45.56
10606;BME280;5350;42.698;23.148;2023-02-12T00:10:05;94580.97;;;0.29;45.23
10606;BME280;5350;42.698;23.148;2023-02-12T00:12:31;94592.47;;;0.46;45.51
10606;BME280;5350;42.698;23.148;2023-02-12T00:15:00;94581.34;;;0.46;45.56
10606;BME280;5350;42.698;23.148;2023-02-12T00:17:26;94584.31;;;0.43;45.80
10606;BME280;5350;42.698;23.148;2023-02-12T00:19:53;94586.09;;;0.49;46.26
10606;BME280;5350;42.698;23.148;2023-02-12T00:22:20;94582.69;;;0.55;46.30
10606;BME280;5350;42.698;23.148;2023-02-12T00:24:46;94581.50;;;0.51;46.00
10606;BME280;5350;42.698;23.148;2023-02-12T00:27:14;94586.66;;;0.57;46.19
10606;BME280;5350;42.698;23.148;2023-02-12T00:29:41;94583.84;;;0.59;46.11
10606;BME280;5350;42.698;23.148;2023-02-12T00:32:09;94573.94;;;0.49;46.44
10606;BME280;5350;42.698;23.148;2023-02-12T00:34:36;94568.72;;;0.62;46.26
10606;BME280;5350;42.698;23.148;2023-02-12T00:37:02;94576.31;;;0.57;46.88
10606;BME280;5350;42.698;23.148;2023-02-12T00:39:29;94572.31;;;0.61;46.67
10606;BME280;5350;42.698;23.148;2023-02-12T00:41:56;94564.13;;;0.64;46.81
10606;BME280;5350;42.698;23.148;2023-02-12T00:44:23;94566.34;;;0.54;47.49
10606;BME280;5350;42.698;23.148;2023-02-12T00:46:49;94561.16;;;0.61;47.64
10606;BME280;5350;42.698;23.148;2023-02-12T00:49:17;94562.16;;;0.60;47.87
10606;BME280;5350;42.698;23.148;2023-02-12T00:51:44;94558.19;;;0.57;47.71
10606;BME280;5350;42.698;23.148;2023-02-12T00:54:11;94555.94;;;0.67;47.82
10606;BME280;5350;42.698;23.148;2023-02-12T00:56:38;94540.84;;;0.64;48.27
10606;BME280;5350;42.698;23.148;2023-02-12T00:59:05;94535.47;;;0.59;47.83
10606;BME280;5350;42.698;23.148;2023-02-12T01:01:32;94532.50;;;0.56;48.68
10606;BME280;5350;42.698;23.148;2023-02-12T01:03:59;94537.34;;;0.39;48.73
10606;BME280;5350;42.698;23.148;2023-02-12T01:06:27;94531.13;;;0.47;49.13
10606;BME280;5350;42.698;23.148;2023-02-12T01:08:54;94542.09;;;0.42;48.92
10606;BME280;5350;42.698;23.148;2023-02-12T01:11:20;94543.28;;;0.46;48.76
10606;BME280;5350;42.698;23.148;2023-02-12T01:13:47;94539.31;;;0.44;48.96
10606;BME280;5350;42.698;23.148;2023-02-12T01:16:15;94532.94;;;0.46;49.36
10606;BME280;5350;42.698;23.148;2023-02-12T01:18:43;94536.75;;;0.44;48.87
10606;BME280;5350;42.698;23.148;2023-02-12T01:21:10;94546.88;;;0.52;49.58
10606;BME280;5350;42.698;23.148;2023-02-12T01:23:39;94539.28;;;0.50;49.91
10606;BME280;5350;42.698;23.148;2023-02-12T01:26:06;94536.28;;;0.53;49.84
10606;BME280;5350;42.698;23.148;2023-02-12T01:28:35;94544.06;;;0.47;49.95
10606;BME280;5350;42.698;23.148;2023-02-12T01:31:07;94548.66;;;0.51;50.11
10606;BME280;5350;42.698;23.148;2023-02-12T01:33:33;94552.78;;;0.59;50.01
10606;BME280;5350;42.698;23.148;2023-02-12T01:36:00;94551.41;;;0.56;49.41
10606;BME280;5350;42.698;23.148;2023-02-12T01:38:27;94544.84;;;0.60;49.56
10606;BME280;5350;42.698;23.148;2023-02-12T01:41:02;94543.22;;;0.66;49.63
10606;BME280;5350;42.698;23.148;2023-02-12T01:43:29;94527.75;;;0.46;49.81
10606;BME280;5350;42.698;23.148;2023-02-12T01:45:59;94516.94;;;0.62;50.36
10606;BME280;5350;42.698;23.148;2023-02-12T01:48:28;94534.06;;;0.57;49.61
10606;BME280;5350;42.698;23.148;2023-02-12T01:50:57;94519.00;;;0.47;50.07
10606;BME280;5350;42.698;23.148;2023-02-12T01:53:30;94515.63;;;0.40;50.85
10606;BME280;5350;42.698;23.148;2023-02-12T01:56:01;94510.69;;;0.26;50.81
10606;BME280;5350;42.698;23.148;2023-02-12T01:58:30;94509.91;;;0.25;50.97
10606;BME280;5350;42.698;23.148;2023-02-12T02:01:01;94516.91;;;0.18;51.66
10606;BME280;5350;42.698;23.148;2023-02-12T02:03:28;94508.72;;;0.21;52.08
10606;BME280;5350;42.698;23.148;2023-02-12T02:05:59;94509.75;;;0.14;51.68
10606;BME280;5350;42.698;23.148;2023-02-12T02:08:27;94521.13;;;0.06;51.81
10606;BME280;5350;42.698;23.148;2023-02-12T02:10:54;94512.97;;;-0.04;52.08
10606;BME280;5350;42.698;23.148;2023-02-12T02:13:22;94517.13;;;0.10;51.38
10606;BME280;5350;42.698;23.148;2023-02-12T02:16:19;94513.13;;;0.14;51.82
10606;BME280;5350;42.698;23.148;2023-02-12T02:18:52;94511.97;;;0.10;52.11
10606;BME280;5350;42.698;23.148;2023-02-12T02:21:51;94518.69;;;0.11;51.88
10606;BME280;5350;42.698;23.148;2023-02-12T02:24:52;94522.69;;;0.14;52.44
10606;BME280;5350;42.698;23.148;2023-02-12T02:27:30;94520.69;;;0.22;52.14
10606;BME280;5350;42.698;23.148;2023-02-12T02:30:31;94520.47;;;0.24;52.67
10606;BME280;5350;42.698;23.148;2023-02-12T02:33:19;94501.94;;;0.33;52.15
10606;BME280;5350;42.698;23.148;2023-02-12T02:35:52;94504.72;;;0.25;52.36
10606;BME280;5350;42.698;23.148;2023-02-12T02:38:24;94512.34;;;0.07;53.00
10606;BME280;5350;42.698;23.148;2023-02-12T02:41:01;94506.78;;;0.10;53.54
10606;BME280;5350;42.698;23.148;2023-02-12T02:43:33;94500.38;;;0.13;53.49
10606;BME280;5350;42.698;23.148;2023-02-12T02:46:06;94515.31;;;0.17;53.48
10606;BME280;5350;42.698;23.148;2023-02-12T02:48:37;94496.38;;;0.23;53.22
10606;BME280;5350;42.698;23.148;2023-02-12T02:51:09;94504.13;;;0.30;53.13
10606;BME280;5350;42.698;23.148;2023-02-12T02:53:40;94512.09;;;0.28;53.85
10606;BME280;5350;42.698;23.148;2023-02-12T02:56:11;94503.88;;;0.38;53.93
10606;BME280;5350;42.698;23.148;2023-02-12T02:58:42;94511.47;;;0.39;53.51
10606;BME280;5350;42.698;23.148;2023-02-12T03:01:16;94515.41;;;0.42;54.09
10606;BME280;5350;42.698;23.148;2023-02-12T03:03:47;94518.22;;;0.34;54.02
10606;BME280;5350;42.698;23.148;2023-02-12T03:06:26;94510.31;;;0.29;53.93
10606;BME280;5350;42.698;23.148;2023-02-12T03:08:58;94508.31;;;0.24;54.63
10606;BME280;5350;42.698;23.148;2023-02-12T03:11:28;94509.09;;;0.31;54.44
10606;BME280;5350;42.698;23.148;2023-02-12T03:13:59;94508.28;;;0.37;54.31
10606;BME280;5350;42.698;23.148;2023-02-12T03:16:31;94501.50;;;0.36;54.24
10606;BME280;5350;42.698;23.148;2023-02-12T03:19:03;94500.31;;;0.39;54.07
10606;BME280;5350;42.698;23.148;2023-02-12T03:21:36;94499.50;;;0.38;54.95
10606;BME280;5350;42.698;23.148;2023-02-12T03:24:11;94506.69;;;0.36;54.94
10606;BME280;5350;42.698;23.148;2023-02-12T03:26:42;94499.28;;;0.40;54.57
10606;BME280;5350;42.698;23.148;2023-02-12T03:29:11;94503.09;;;0.44;55.40
10606;BME280;5350;42.698;23.148;2023-02-12T03:31:49;94507.47;;;0.43;55.80
10606;BME280;5350;42.698;23.148;2023-02-12T03:34:25;94496.09;;;0.44;55.69
10606;BME280;5350;42.698;23.148;2023-02-12T03:36:59;94498.31;;;0.41;55.93
10606;BME280;5350;42.698;23.148;2023-02-12T03:39:29;94495.47;;;0.49;55.75
10606;BME280;5350;42.698;23.148;2023-02-12T03:42:01;94477.94;;;0.51;55.17
10606;BME280;5350;42.698;23.148;2023-02-12T03:44:42;94483.88;;;0.64;55.75
10606;BME280;5350;42.698;23.148;2023-02-12T03:47:18;94485.44;;;0.65;55.56
10606;BME280;5350;42.698;23.148;2023-02-12T03:49:50;94492.38;;;0.71;55.63
10606;BME280;5350;42.698;23.148;2023-02-12T03:52:20;94486.81;;;0.74;55.36
10606;BME280;5350;42.698;23.148;2023-02-12T03:54:47;94486.38;;;0.77;54.49
10606;BME280;5350;42.698;23.148;2023-02-12T03:57:17;94482.31;;;0.88;55.36
10606;BME280;5350;42.698;23.148;2023-02-12T03:59:45;94477.31;;;0.93;54.67
10606;BME280;5350;42.698;23.148;2023-02-12T04:02:15;94488.78;;;1.10;53.67
10606;BME280;5350;42.698;23.148;2023-02-12T04:04:44;94485.25;;;0.98;53.58
10606;BME280;5350;42.698;23.148;2023-02-12T04:07:12;94486.00;;;1.05;54.02
10606;BME280;5350;42.698;23.148;2023-02-12T04:09:39;94484.03;;;1.01;53.37
10606;BME280;5350;42.698;23.148;2023-02-12T04:12:19;94477.59;;;1.10;52.89
10606;BME280;5350;42.698;23.148;2023-02-12T04:14:52;94477.69;;;0.97;53.26
10606;BME280;5350;42.698;23.148;2023-02-12T04:17:28;94489.66;;;0.98;53.12
10606;BME280;5350;42.698;23.148;2023-02-12T04:20:06;94481.56;;;0.88;53.07
10606;BME280;5350;42.698;23.148;2023-02-12T04:22:45;94491.69;;;0.89;53.40
10606;BME280;5350;42.698;23.148;2023-02-12T04:25:20;94491.66;;;0.96;53.13
10606;BME280;5350;42.698;23.148;2023-02-12T04:27:56;94496.03;;;0.95;53.05
10606;BME280;5350;42.698;23.148;2023-02-12T04:30:29;94493.75;;;0.80;53.05
10606;BME280;5350;42.698;23.148;2023-02-12T04:33:02;94496.91;;;0.82;53.59
10606;BME280;5350;42.698;23.148;2023-02-12T04:35:31;94493.66;;;0.94;52.58
10606;BME280;5350;42.698;23.148;2023-02-12T04:38:05;94491.66;;;0.96;53.09
10606;BME280;5350;42.698;23.148;2023-02-12T04:40:37;94498.13;;;0.80;52.97
10606;BME280;5350;42.698;23.148;2023-02-12T04:43:05;94496.91;;;0.82;53.36
10606;BME280;5350;42.698;23.148;2023-02-12T04:45:33;94503.19;;;1.00;53.55
10606;BME280;5350;42.698;23.148;2023-02-12T04:48:02;94516.34;;;0.98;53.61
10606;BME280;5350;42.698;23.148;2023-02-12T04:50:37;94518.75;;;1.00;53.12
10606;BME280;5350;42.698;23.148;2023-02-12T04:53:04;94520.34;;;0.94;53.16
10606;BME280;5350;42.698;23.148;2023-02-12T04:55:31;94530.88;;;0.99;53.64
10606;BME280;5350;42.698;23.148;2023-02-12T04:57:57;94535.06;;;1.00;53.30
10606;BME280;5350;42.698;23.148;2023-02-12T05:00:24;94533.44;;;1.06;53.72
10606;BME280;5350;42.698;23.148;2023-02-12T05:02:51;94538.84;;;1.04;53.64
10606;BME280;5350;42.698;23.148;2023-02-12T05:05:20;94543.81;;;1.06;53.41
10606;BME280;5350;42.698;23.148;2023-02-12T05:07:47;94547.13;;;1.13;52.94
10606;BME280;5350;42.698;23.148;2023-02-12T05:10:14;94551.59;;;1.06;53.14
10606;BME280;5350;42.698;23.148;2023-02-12T05:12:40;94559.34;;;1.06;53.90
10606;BME280;5350;42.698;23.148;2023-02-12T05:15:08;94559.84;;;0.90;55.01
10606;BME280;5350;42.698;23.148;2023-02-12T05:17:35;94566.25;;;0.80;56.57
10606;BME280;5350;42.698;23.148;2023-02-12T05:20:02;94568.69;;;0.69;58.75
10606;BME280;5350;42.698;23.148;2023-02-12T05:22:30;94578.09;;;0.57;61.28
10606;BME280;5350;42.698;23.148;2023-02-12T05:24:57;94574.31;;;0.59;62.17
10606;BME280;5350;42.698;23.148;2023-02-12T05:27:24;94580.31;;;0.47;63.97
10606;BME280;5350;42.698;23.148;2023-02-12T05:29:50;94577.16;;;0.38;65.09
10606;BME280;5350;42.698;23.148;2023-02-12T05:32:17;94580.13;;;0.42;65.30
10606;BME280;5350;42.698;23.148;2023-02-12T05:34:44;94577.78;;;0.27;66.84
10606;BME280;5350;42.698;23.148;2023-02-12T05:37:10;94587.50;;;0.38;67.30
10606;BME280;5350;42.698;23.148;2023-02-12T05:39:39;94583.69;;;0.54;67.10
10606;BME280;5350;42.698;23.148;2023-02-12T05:42:05;94588.75;;;0.29;69.80
10606;BME280;5350;42.698;23.148;2023-02-12T05:44:32;94581.16;;;0.28;71.84
10606;BME280;5350;42.698;23.148;2023-02-12T05:46:59;94593.50;;;0.19;73.96
10606;BME280;5350;42.698;23.148;2023-02-12T05:49:26;94592.75;;;0.12;75.95
10606;BME280;5350;42.698;23.148;2023-02-12T05:51:52;94585.97;;;-0.02;77.74
10606;BME280;5350;42.698;23.148;2023-02-12T05:54:19;94588.38;;;-0.01;78.49
10606;BME280;5350;42.698;23.148;2023-02-12T05:56:47;94586.38;;;0.08;78.88
10606;BME280;5350;42.698;23.148;2023-02-12T05:59:16;94586.56;;;0.20;78.63
10606;BME280;5350;42.698;23.148;2023-02-12T06:01:44;94592.16;;;-0.03;81.97
10606;BME280;5350;42.698;23.148;2023-02-12T06:04:14;94596.75;;;0.02;83.30
10606;BME280;5350;42.698;23.148;2023-02-12T06:06:42;94595.91;;;0.21;83.23
10606;BME280;5350;42.698;23.148;2023-02-12T06:09:10;94597.94;;;0.06;84.15
10606;BME280;5350;42.698;23.148;2023-02-12T06:11:37;94595.13;;;-0.06;85.33
10606;BME280;5350;42.698;23.148;2023-02-12T06:14:09;94601.91;;;-0.05;86.22
10606;BME280;5350;42.698;23.148;2023-02-12T06:16:36;94585.97;;;0.05;86.08
10606;BME280;5350;42.698;23.148;2023-02-12T06:19:04;94594.31;;;0.13;87.03
10606;BME280;5350;42.698;23.148;2023-02-12T06:21:32;94593.13;;;0.09;89.11
10606;BME280;5350;42.698;23.148;2023-02-12T06:23:59;94590.34;;;0.11;91.73
10606;BME280;5350;42.698;23.148;2023-02-12T06:26:26;94599.09;;;0.16;92.53
10606;BME280;5350;42.698;23.148;2023-02-12T06:28:53;94590.69;;;0.34;93.25
10606;BME280;5350;42.698;23.148;2023-02-12T06:31:23;94595.50;;;0.30;94.18
10606;BME280;5350;42.698;23.148;2023-02-12T06:33:51;94590.69;;;0.40;94.79
10606;BME280;5350;42.698;23.148;2023-02-12T06:36:18;94582.34;;;0.32;95.16
10606;BME280;5350;42.698;23.148;2023-02-12T06:38:45;94583.94;;;0.33;95.73
10606;BME280;5350;42.698;23.148;2023-02-12T06:41:12;94586.69;;;0.44;95.82
10606;BME280;5350;42.698;23.148;2023-02-12T06:43:39;94589.66;;;0.54;95.59
10606;BME280;5350;42.698;23.148;2023-02-12T06:46:07;94592.81;;;0.56;95.15
10606;BME280;5350;42.698;23.148;2023-02-12T06:48:35;94592.38;;;0.72;94.36
10606;BME280;5350;42.698;23.148;2023-02-12T06:51:04;94589.38;;;0.75;93.61
10606;BME280;5350;42.698;23.148;2023-02-12T06:53:31;94595.72;;;0.86;93.58
10606;BME280;5350;42.698;23.148;2023-02-12T06:55:59;94596.50;;;0.93;92.68
10606;BME280;5350;42.698;23.148;2023-02-12T06:58:26;94603.28;;;0.88;91.51
10606;BME280;5350;42.698;23.148;2023-02-12T07:00:53;94603.28;;;0.88;91.58
10606;BME280;5350;42.698;23.148;2023-02-12T07:03:19;94592.94;;;0.88;91.49
10606;BME280;5350;42.698;23.148;2023-02-12T07:05:48;94585.34;;;0.86;92.20
10606;BME280;5350;42.698;23.148;2023-02-12T07:08:14;94592.72;;;0.89;91.48
10606;BME280;5350;42.698;23.148;2023-02-12T07:10:41;94591.34;;;0.80;91.17
10606;BME280;5350;42.698;23.148;2023-02-12T07:13:08;94596.56;;;0.73;90.71
10606;BME280;5350;42.698;23.148;2023-02-12T07:15:38;94594.72;;;0.87;90.82
10606;BME280;5350;42.698;23.148;2023-02-12T07:18:05;94600.06;;;0.92;89.71
10606;BME280;5350;42.698;23.148;2023-02-12T07:20:32;94599.63;;;1.02;88.60
10606;BME280;5350;42.698;23.148;2023-02-12T07:23:00;94598.84;;;1.01;89.02
10606;BME280;5350;42.698;23.148;2023-02-12T07:25:26;94590.03;;;1.09;88.82
10606;BME280;5350;42.698;23.148;2023-02-12T07:27:53;94587.56;;;1.27;89.91
10606;BME280;5350;42.698;23.148;2023-02-12T07:30:20;94594.34;;;1.21;87.58
10606;BME280;5350;42.698;23.148;2023-02-12T07:32:47;94608.28;;;1.27;86.05
10606;BME280;5350;42.698;23.148;2023-02-12T07:35:14;94598.19;;;1.12;86.54
10606;BME280;5350;42.698;23.148;2023-02-12T07:37:40;94601.34;;;1.21;86.52
10606;BME280;5350;42.698;23.148;2023-02-12T07:40:09;94604.69;;;1.21;86.04
10606;BME280;5350;42.698;23.148;2023-02-12T07:42:36;94603.06;;;1.33;84.96
10606;BME280;5350;42.698;23.148;2023-02-12T07:45:03;94600.28;;;1.28;85.36
10606;BME280;5350;42.698;23.148;2023-02-12T07:47:30;94604.28;;;1.31;85.21
10606;BME280;5350;42.698;23.148;2023-02-12T07:49:57;94603.81;;;1.40;84.25
10606;BME280;5350;42.698;23.148;2023-02-12T07:52:24;94605.81;;;1.38;85.13
10606;BME280;5350;42.698;23.148;2023-02-12T07:54:50;94616.16;;;1.45;86.12
10606;BME280;5350;42.698;23.148;2023-02-12T07:57:18;94613.38;;;1.40;86.66
10606;BME280;5350;42.698;23.148;2023-02-12T07:59:45;94616.53;;;1.42;87.26
10606;BME280;5350;42.698;23.148;2023-02-12T08:02:12;94629.69;;;1.47;86.58
10606;BME280;5350;42.698;23.148;2023-02-12T08:04:38;94624.94;;;1.44;87.21
10606;BME280;5350;42.698;23.148;2023-02-12T08:07:05;94629.44;;;1.55;87.20
10606;BME280;5350;42.698;23.148;2023-02-12T08:09:32;94630.78;;;1.64;86.71
10606;BME280;5350;42.698;23.148;2023-02-12T08:11:58;94620.25;;;1.59;87.25
10606;BME280;5350;42.698;23.148;2023-02-12T08:14:27;94622.09;;;1.52;89.36
10606;BME280;5350;42.698;23.148;2023-02-12T08:16:53;94625.97;;;1.68;89.23
10606;BME280;5350;42.698;23.148;2023-02-12T08:19:20;94628.31;;;1.76;89.28
10606;BME280;5350;42.698;23.148;2023-02-12T08:21:50;94633.81;;;1.86;88.89
10606;BME280;5350;42.698;23.148;2023-02-12T08:24:19;94618.91;;;1.81;89.18
10606;BME280;5350;42.698;23.148;2023-02-12T08:26:47;94634.16;;;1.96;88.90
10606;BME280;5350;42.698;23.148;2023-02-12T08:29:16;94645.06;;;2.04;88.12
10606;BME280;5350;42.698;23.148;2023-02-12T08:31:46;94643.06;;;2.06;87.53
10606;BME280;5350;42.698;23.148;2023-02-12T08:34:17;94646.06;;;2.03;88.08
10606;BME280;5350;42.698;23.148;2023-02-12T08:36:44;94653.22;;;2.08;87.88
10606;BME280;5350;42.698;23.148;2023-02-12T08:39:11;94649.28;;;1.99;87.94
10606;BME280;5350;42.698;23.148;2023-02-12T08:41:38;94657.63;;;1.76;90.26
10606;BME280;5350;42.698;23.148;2023-02-12T08:44:07;94657.91;;;1.68;89.75
10606;BME280;5350;42.698;23.148;2023-02-12T08:46:35;94657.84;;;1.75;89.89
10606;BME280;5350;42.698;23.148;2023-02-12T08:49:06;94658.06;;;1.73;90.26
10606;BME280;5350;42.698;23.148;2023-02-12T08:51:35;94668.69;;;1.65;90.64
10606;BME280;5350;42.698;23.148;2023-02-12T08:54:04;94668.28;;;1.68;91.66
10606;BME280;5350;42.698;23.148;2023-02-12T08:56:33;94670.25;;;1.73;91.75
10606;BME280;5350;42.698;23.148;2023-02-12T08:59:01;94676.63;;;1.70;90.27
10606;BME280;5350;42.698;23.148;2023-02-12T09:01:30;94680.06;;;1.64;90.73
10606;BME280;5350;42.698;23.148;2023-02-12T09:03:58;94675.50;;;1.59;90.59
10606;BME280;5350;42.698;23.148;2023-02-12T09:06:26;94677.38;;;1.46;92.04
10606;BME280;5350;42.698;23.148;2023-02-12T09:08:54;94680.72;;;1.53;91.60
10606;BME280;5350;42.698;23.148;2023-02-12T09:11:23;94676.53;;;1.52;92.37
10606;BME280;5350;42.698;23.148;2023-02-12T09:13:55;94679.53;;;1.49;91.11
10606;BME280;5350;42.698;23.148;2023-02-12T09:16:22;94691.06;;;1.59;91.42
10606;BME280;5350;42.698;23.148;2023-02-12T09:18:49;94695.44;;;1.59;91.58
10606;BME280;5350;42.698;23.148;2023-02-12T09:21:16;94694.28;;;1.55;92.69
10606;BME280;5350;42.698;23.148;2023-02-12T09:23:45;94693.03;;;1.64;93.37
10606;BME280;5350;42.698;23.148;2023-02-12T09:26:14;94696.19;;;1.73;93.12
10606;BME280;5350;42.698;23.148;2023-02-12T09:28:41;94703.13;;;1.79;91.42
10606;BME280;5350;42.698;23.148;2023-02-12T09:31:09;94707.19;;;1.61;92.18
10606;BME280;5350;42.698;23.148;2023-02-12T09:33:37;94705.91;;;1.46;92.96
10606;BME280;5350;42.698;23.148;2023-02-12T09:36:05;94692.53;;;1.42;93.63
10606;BME280;5350;42.698;23.148;2023-02-12T09:38:33;94687.94;;;1.44;93.49
10606;BME280;5350;42.698;23.148;2023-02-12T09:41:23;94693.16;;;1.38;94.45
10606;BME280;5350;42.698;23.148;2023-02-12T09:44:01;94697.91;;;1.47;94.13
10606;BME280;5350;42.698;23.148;2023-02-12T09:46:32;94700.22;;;1.62;93.75
10606;BME280;5350;42.698;23.148;2023-02-12T09:49:07;94695.78;;;1.69;93.31
10606;BME280;5350;42.698;23.148;2023-02-12T09:51:37;94706.09;;;1.82;93.44
10606;BME280;5350;42.698;23.148;2023-02-12T09:54:06;94700.75;;;1.77;92.41
10606;BME280;5350;42.698;23.148;2023-02-12T09:56:41;94702.22;;;1.67;93.20
10606;BME280;5350;42.698;23.148;2023-02-12T09:59:13;94688.75;;;1.45;94.33
10606;BME280;5350;42.698;23.148;2023-02-12T10:01:43;94695.97;;;1.30;96.27
10606;BME280;5350;42.698;23.148;2023-02-12T10:04:11;94709.34;;;1.33;96.24
10606;BME280;5350;42.698;23.148;2023-02-12T10:06:41;94710.81;;;1.16;97.52
10606;BME280;5350;42.698;23.148;2023-02-12T10:09:30;94710.38;;;1.19;97.60
10606;BME280;5350;42.698;23.148;2023-02-12T10:12:04;94708.44;;;1.08;98.68
10606;BME280;5350;42.698;23.148;2023-02-12T10:14:54;94716.22;;;1.02;100.00
10606;BME280;5350;42.698;23.148;2023-02-12T10:17:32;94716.22;;;1.08;99.97
10606;BME280;5350;42.698;23.148;2023-02-12T10:20:26;94714.56;;;1.20;99.44
10606;BME280;5350;42.698;23.148;2023-02-12T10:23:06;94703.97;;;1.28;99.00
10606;BME280;5350;42.698;23.148;2023-02-12T10:25:43;94712.38;;;1.17;99.83
10606;BME280;5350;42.698;23.148;2023-02-12T10:28:16;94705.72;;;1.41;99.44
10606;BME280;5350;42.698;23.148;2023-02-12T10:30:49;94728.19;;;1.53;98.48
10606;BME280;5350;42.698;23.148;2023-02-12T10:33:23;94708.91;;;1.81;97.66
10606;BME280;5350;42.698;23.148;2023-02-12T10:35:54;94701.34;;;1.79;96.79
10606;BME280;5350;42.698;23.148;2023-02-12T10:38:26;94707.19;;;1.99;95.89
10606;BME280;5350;42.698;23.148;2023-02-12T10:40:54;94695.81;;;2.25;94.63
10606;BME280;5350;42.698;23.148;2023-02-12T10:43:24;94696.41;;;2.52;94.19
10606;BME280;5350;42.698;23.148;2023-02-12T10:45:50;94689.19;;;2.54;91.58
10606;BME280;5350;42.698;23.148;2023-02-12T10:48:19;94684.88;;;2.66;91.80
10606;BME280;5350;42.698;23.148;2023-02-12T10:50:53;94690.19;;;2.95;90.16
10606;BME280;5350;42.698;23.148;2023-02-12T10:53:24;94696.59;;;2.93;88.44
10606;BME280;5350;42.698;23.148;2023-02-12T10:56:08;94693.06;;;2.87;90.79
10606;BME280;5350;42.698;23.148;2023-02-12T10:58:40;94684.34;;;3.00;89.54
10606;BME280;5350;42.698;23.148;2023-02-12T11:01:15;94690.75;;;2.97;87.29
10606;BME280;5350;42.698;23.148;2023-02-12T11:03:42;94701.16;;;2.97;87.30
10606;BME280;5350;42.698;23.148;2023-02-12T11:06:14;94703.97;;;2.96;87.57
10606;BME280;5350;42.698;23.148;2023-02-12T11:08:41;94704.84;;;2.90;87.70
10606;BME280;5350;42.698;23.148;2023-02-12T11:11:10;94704.16;;;2.94;88.95
10606;BME280;5350;42.698;23.148;2023-02-12T11:13:41;94706.13;;;2.99;88.05
10606;BME280;5350;42.698;23.148;2023-02-12T11:16:10;94706.06;;;2.87;87.39
10606;BME280;5350;42.698;23.148;2023-02-12T11:18:37;94700.06;;;2.87;88.86
10606;BME280;5350;42.698;23.148;2023-02-12T11:21:05;94708.31;;;3.02;88.44
10606;BME280;5350;42.698;23.148;2023-02-12T11:23:34;94701.78;;;3.11;85.86
10606;BME280;5350;42.698;23.148;2023-02-12T11:26:04;94704.69;;;3.03;85.41
10606;BME280;5350;42.698;23.148;2023-02-12T11:28:33;94706.41;;;3.09;86.02
10606;BME280;5350;42.698;23.148;2023-02-12T11:31:03;94710.44;;;3.05;87.31
10606;BME280;5350;42.698;23.148;2023-02-12T11:33:42;94707.72;;;3.18;85.87
10606;BME280;5350;42.698;23.148;2023-02-12T11:36:14;94700.44;;;3.27;86.19
10606;BME280;5350;42.698;23.148;2023-02-12T11:38:49;94707.78;;;3.11;87.40
10606;BME280;5350;42.698;23.148;2023-02-12T11:41:22;94697.53;;;3.35;87.02
10606;BME280;5350;42.698;23.148;2023-02-12T11:43:50;94707.47;;;3.56;84.70
10606;BME280;5350;42.698;23.148;2023-02-12T11:46:21;94713.22;;;3.76;83.23
10606;BME280;5350;42.698;23.148;2023-02-12T11:48:50;94709.25;;;3.73;82.58
10606;BME280;5350;42.698;23.148;2023-02-12T11:51:18;94711.97;;;3.78;82.81
10606;BME280;5350;42.698;23.148;2023-02-12T11:53:48;94702.59;;;3.77;80.68
10606;BME280;5350;42.698;23.148;2023-02-12T11:56:16;94708.31;;;3.68;80.26
10606;BME280;5350;42.698;23.148;2023-02-12T11:58:45;94712.16;;;3.65;81.43
10606;BME280;5350;42.698;23.148;2023-02-12T12:01:17;94706.75;;;3.67;81.39
10606;BME280;5350;42.698;23.148;2023-02-12T12:03:52;94712.19;;;3.47;82.12
10606;BME280;5350;42.698;23.148;2023-02-12T12:06:34;94704.69;;;3.39;83.99
10606;BME280;5350;42.698;23.148;2023-02-12T12:09:12;94708.94;;;3.52;83.96
10606;BME280;5350;42.698;23.148;2023-02-12T12:11:56;94705.03;;;3.61;83.79
10606;BME280;5350;42.698;23.148;2023-02-12T12:14:27;94711.22;;;3.60;83.88
10606;BME280;5350;42.698;23.148;2023-02-12T12:16:58;94712.25;;;3.59;84.36
10606;BME280;5350;42.698;23.148;2023-02-12T12:19:53;94724.00;;;3.61;82.87
10606;BME280;5350;42.698;23.148;2023-02-12T12:22:38;94721.81;;;3.76;82.97
10606;BME280;5350;42.698;23.148;2023-02-12T12:25:11;94708.81;;;3.76;81.17
10606;BME280;5350;42.698;23.148;2023-02-12T12:27:52;94719.00;;;3.78;81.17
10606;BME280;5350;42.698;23.148;2023-02-12T12:30:44;94721.06;;;3.58;83.14
10606;BME280;5350;42.698;23.148;2023-02-12T12:33:19;94720.63;;;3.43;83.92
10606;BME280;5350;42.698;23.148;2023-02-12T12:36:01;94719.91;;;3.54;83.96
10606;BME280;5350;42.698;23.148;2023-02-12T12:38:41;94719.19;;;3.65;84.03
10606;BME280;5350;42.698;23.148;2023-02-12T12:41:19;94714.81;;;3.77;83.23
10606;BME280;5350;42.698;23.148;2023-02-12T12:44:01;94721.56;;;3.66;81.48
10606;BME280;5350;42.698;23.148;2023-02-12T12:46:41;94731.50;;;3.40;82.58
10606;BME280;5350;42.698;23.148;2023-02-12T12:49:23;94725.03;;;3.42;82.85
10606;BME280;5350;42.698;23.148;2023-02-12T12:52:18;94729.47;;;3.42;84.92
10606;BME280;5350;42.698;23.148;2023-02-12T12:55:05;94732.56;;;3.50;83.08
10606;BME280;5350;42.698;23.148;2023-02-12T12:57:45;94732.25;;;3.40;83.06
10606;BME280;5350;42.698;23.148;2023-02-12T13:00:26;94736.75;;;3.33;83.76
10606;BME280;5350;42.698;23.148;2023-02-12T13:03:21;94745.84;;;3.24;84.77
10606;BME280;5350;42.698;23.148;2023-02-12T13:06:23;94744.56;;;3.15;84.51
10606;BME280;5350;42.698;23.148;2023-02-12T13:09:10;94754.97;;;3.15;86.21
10606;BME280;5350;42.698;23.148;2023-02-12T13:11:52;94759.38;;;3.14;85.74
10606;BME280;5350;42.698;23.148;2023-02-12T13:14:34;94754.22;;;3.08;86.33
10606;BME280;5350;42.698;23.148;2023-02-12T13:17:08;94750.03;;;3.07;86.56
10606;BME280;5350;42.698;23.148;2023-02-12T13:19:52;94760.47;;;3.00;87.37
10606;BME280;5350;42.698;23.148;2023-02-12T13:22:24;94752.56;;;3.13;86.17
10606;BME280;5350;42.698;23.148;2023-02-12T13:25:01;94762.66;;;3.03;87.30
10606;BME280;5350;42.698;23.148;2023-02-12T13:27:34;94765.22;;;3.28;86.73
10606;BME280;5350;42.698;23.148;2023-02-12T13:30:04;94767.22;;;3.26;86.68